UAL2322 KSFO-KMFR
Flight info
| Callsign | UAL2322 |
|---|---|
| Flight time | 0h 56m |
| Altitude | 30000 |
| Route | TRUKN2 GRTFL OED |
| Aircraft | B738/M-SDE2E3FGHIRWXY/LB1 |
Departure
| Time | 2026-04-22 02:13 |
|---|---|
| Airport | San Francisco International Airport (KSFO) |
Arrival
| Time | 2026-04-22 03:09 |
|---|---|
| Airport | Rogue Valley International-Medford Airport (KMFR) |
| Time | Latitude | Longitude | Altitude | Speed | Heading |
|---|---|---|---|---|---|
| 2026-04-22 01:41 | 37.61898 | -122.38372 | 31 ft | 0 kts | 298° |
| 2026-04-22 02:02 | 37.61895 | -122.38364 | 31 ft | 2 kts | 299° |
| 2026-04-22 02:02 | 37.61888 | -122.38348 | 31 ft | 2 kts | 299° |
| 2026-04-22 02:02 | 37.61881 | -122.38331 | 31 ft | 2 kts | 299° |
| 2026-04-22 02:03 | 37.61872 | -122.38316 | 31 ft | 2 kts | 337° |
| 2026-04-22 02:03 | 37.61860 | -122.38315 | 31 ft | 0 kts | 23° |
| 2026-04-22 02:03 | 37.61855 | -122.38319 | 31 ft | 1 kts | 29° |
| 2026-04-22 02:03 | 37.61853 | -122.38320 | 31 ft | 0 kts | 28° |
| 2026-04-22 02:07 | 37.61874 | -122.38306 | 31 ft | 6 kts | 27° |
| 2026-04-22 02:07 | 37.61928 | -122.38271 | 31 ft | 10 kts | 28° |
| 2026-04-22 02:07 | 37.61988 | -122.38208 | 31 ft | 10 kts | 59° |
| 2026-04-22 02:08 | 37.61968 | -122.38142 | 31 ft | 10 kts | 126° |
| 2026-04-22 02:08 | 37.61915 | -122.38055 | 31 ft | 15 kts | 130° |
| 2026-04-22 02:08 | 37.61849 | -122.37923 | 30 ft | 20 kts | 117° |
| 2026-04-22 02:08 | 37.61760 | -122.37663 | 24 ft | 27 kts | 109° |
| 2026-04-22 02:09 | 37.61706 | -122.37502 | 19 ft | 32 kts | 116° |
| 2026-04-22 02:09 | 37.61597 | -122.37234 | 14 ft | 33 kts | 118° |
| 2026-04-22 02:09 | 37.61486 | -122.36982 | 11 ft | 31 kts | 127° |
| 2026-04-22 02:09 | 37.61333 | -122.36702 | 11 ft | 26 kts | 120° |
| 2026-04-22 02:10 | 37.61275 | -122.36568 | 11 ft | 25 kts | 117° |
| 2026-04-22 02:10 | 37.61192 | -122.36365 | 8 ft | 25 kts | 118° |
| 2026-04-22 02:10 | 37.61108 | -122.36166 | 8 ft | 25 kts | 117° |
| 2026-04-22 02:10 | 37.61052 | -122.35995 | 8 ft | 13 kts | 87° |
| 2026-04-22 02:11 | 37.61055 | -122.35976 | 8 ft | 0 kts | 77° |
| 2026-04-22 02:11 | 37.61060 | -122.35955 | 8 ft | 5 kts | 65° |
| 2026-04-22 02:11 | 37.61104 | -122.35899 | 8 ft | 11 kts | 35° |
| 2026-04-22 02:11 | 37.61187 | -122.35869 | 8 ft | 10 kts | 320° |
| 2026-04-22 02:12 | 37.61202 | -122.35905 | 8 ft | 0 kts | 300° |
| 2026-04-22 02:12 | 37.61239 | -122.35992 | 8 ft | 45 kts | 297° |
| 2026-04-22 02:12 | 37.61666 | -122.37013 | 12 ft | 147 kts | 297° |
| 2026-04-22 02:13 | 37.62008 | -122.37833 | 317 ft | 164 kts | 296° |
| 2026-04-22 02:13 | 37.62544 | -122.39071 | 1359 ft | 161 kts | 295° |
| 2026-04-22 02:13 | 37.63075 | -122.40338 | 2025 ft | 172 kts | 296° |
| 2026-04-22 02:13 | 37.63871 | -122.42150 | 2819 ft | 188 kts | 297° |
| 2026-04-22 02:14 | 37.64296 | -122.43135 | 3106 ft | 203 kts | 297° |
| 2026-04-22 02:14 | 37.65001 | -122.44788 | 3676 ft | 221 kts | 297° |
| 2026-04-22 02:14 | 37.65756 | -122.46540 | 4291 ft | 236 kts | 297° |
| 2026-04-22 02:14 | 37.66559 | -122.48402 | 4999 ft | 249 kts | 296° |
| 2026-04-22 02:15 | 37.67501 | -122.50317 | 5657 ft | 264 kts | 307° |
| 2026-04-22 02:15 | 37.68949 | -122.51833 | 6417 ft | 278 kts | 330° |
| 2026-04-22 02:15 | 37.70831 | -122.52415 | 7270 ft | 286 kts | 352° |
| 2026-04-22 02:15 | 37.73501 | -122.52502 | 8346 ft | 292 kts | 355° |
| 2026-04-22 02:16 | 37.74866 | -122.52569 | 8787 ft | 298 kts | 355° |
| 2026-04-22 02:16 | 37.77674 | -122.52304 | 9826 ft | 309 kts | 14° |
| 2026-04-22 02:16 | 37.79002 | -122.51608 | 10311 ft | 316 kts | 29° |
| 2026-04-22 02:16 | 37.80821 | -122.49880 | 10782 ft | 333 kts | 44° |
| 2026-04-22 02:17 | 37.82733 | -122.46683 | 11377 ft | 353 kts | 64° |
| 2026-04-22 02:17 | 37.83910 | -122.43837 | 11863 ft | 368 kts | 58° |
| 2026-04-22 02:17 | 37.85012 | -122.42192 | 12120 ft | 380 kts | 42° |
| 2026-04-22 02:17 | 37.87340 | -122.40499 | 12688 ft | 388 kts | 17° |
| 2026-04-22 02:18 | 37.89963 | -122.39711 | 13427 ft | 390 kts | 9° |
| 2026-04-22 02:18 | 37.92648 | -122.39090 | 14152 ft | 394 kts | 7° |
| 2026-04-22 02:18 | 37.95391 | -122.38470 | 14874 ft | 399 kts | 10° |
| 2026-04-22 02:18 | 37.98114 | -122.37645 | 15577 ft | 404 kts | 14° |
| 2026-04-22 02:19 | 38.00845 | -122.36680 | 16267 ft | 408 kts | 15° |
| 2026-04-22 02:19 | 38.03564 | -122.35653 | 16977 ft | 411 kts | 16° |
| 2026-04-22 02:19 | 38.06341 | -122.34576 | 17681 ft | 415 kts | 17° |
| 2026-04-22 02:19 | 38.10052 | -122.33118 | 18595 ft | 419 kts | 17° |
| 2026-04-22 02:20 | 38.11923 | -122.32381 | 19062 ft | 420 kts | 18° |
| 2026-04-22 02:20 | 38.14740 | -122.31269 | 19710 ft | 424 kts | 18° |
| 2026-04-22 02:20 | 38.17583 | -122.30148 | 20340 ft | 427 kts | 18° |
| 2026-04-22 02:20 | 38.20411 | -122.29030 | 20946 ft | 430 kts | 18° |
| 2026-04-22 02:21 | 38.23301 | -122.27886 | 21549 ft | 433 kts | 19° |
| 2026-04-22 02:21 | 38.26213 | -122.26734 | 22128 ft | 437 kts | 19° |
| 2026-04-22 02:21 | 38.29134 | -122.25577 | 22700 ft | 439 kts | 19° |
| 2026-04-22 02:21 | 38.33077 | -122.24253 | 23432 ft | 445 kts | 13° |
| 2026-04-22 02:22 | 38.35156 | -122.23830 | 23791 ft | 448 kts | 7° |
| 2026-04-22 02:22 | 38.38311 | -122.23744 | 24297 ft | 453 kts | 359° |
| 2026-04-22 02:22 | 38.41477 | -122.24071 | 24795 ft | 457 kts | 355° |
| 2026-04-22 02:22 | 38.44636 | -122.24532 | 25281 ft | 461 kts | 354° |
| 2026-04-22 02:23 | 38.47851 | -122.25039 | 25746 ft | 465 kts | 354° |
| 2026-04-22 02:23 | 38.51085 | -122.25558 | 26175 ft | 467 kts | 354° |
| 2026-04-22 02:23 | 38.54321 | -122.26076 | 26588 ft | 470 kts | 353° |
| 2026-04-22 02:23 | 38.58720 | -122.26777 | 27136 ft | 474 kts | 353° |
| 2026-04-22 02:24 | 38.60906 | -122.27123 | 27448 ft | 474 kts | 353° |
| 2026-04-22 02:24 | 38.64199 | -122.27648 | 28031 ft | 470 kts | 352° |
| 2026-04-22 02:24 | 38.67460 | -122.28163 | 28530 ft | 469 kts | 352° |
| 2026-04-22 02:24 | 38.70672 | -122.28669 | 29007 ft | 467 kts | 352° |
| 2026-04-22 02:25 | 38.73918 | -122.29179 | 29506 ft | 466 kts | 351° |
| 2026-04-22 02:25 | 38.77156 | -122.29686 | 29952 ft | 465 kts | 351° |
| 2026-04-22 02:25 | 38.80392 | -122.30196 | 30066 ft | 468 kts | 351° |
| 2026-04-22 02:26 | 38.86836 | -122.31210 | 30085 ft | 458 kts | 349° |
| 2026-04-22 02:26 | 38.93185 | -122.32208 | 30065 ft | 456 kts | 349° |
| 2026-04-22 02:27 | 39.00583 | -122.33382 | 30051 ft | 457 kts | 349° |
| 2026-04-22 02:27 | 39.05907 | -122.34226 | 30044 ft | 458 kts | 350° |
| 2026-04-22 02:28 | 39.12281 | -122.35238 | 30043 ft | 458 kts | 350° |
| 2026-04-22 02:28 | 39.18606 | -122.36245 | 30041 ft | 459 kts | 351° |
| 2026-04-22 02:29 | 39.24974 | -122.37260 | 30037 ft | 459 kts | 351° |
| 2026-04-22 02:29 | 39.31359 | -122.38278 | 30033 ft | 459 kts | 351° |
| 2026-04-22 02:30 | 39.37748 | -122.39299 | 30025 ft | 460 kts | 351° |
| 2026-04-22 02:30 | 39.44149 | -122.40324 | 30019 ft | 460 kts | 351° |
| 2026-04-22 02:31 | 39.50511 | -122.41344 | 30014 ft | 461 kts | 351° |
| 2026-04-22 02:31 | 39.56888 | -122.42369 | 30010 ft | 461 kts | 352° |
| 2026-04-22 02:32 | 39.63298 | -122.43401 | 30007 ft | 462 kts | 352° |
| 2026-04-22 02:32 | 39.70775 | -122.44607 | 30005 ft | 462 kts | 352° |
| 2026-04-22 02:33 | 39.76082 | -122.45464 | 30002 ft | 463 kts | 352° |
| 2026-04-22 02:33 | 39.82490 | -122.46502 | 29999 ft | 464 kts | 352° |
| 2026-04-22 02:34 | 39.88927 | -122.47546 | 29995 ft | 464 kts | 352° |
| 2026-04-22 02:34 | 39.95383 | -122.48595 | 29990 ft | 464 kts | 352° |
| 2026-04-22 02:35 | 40.01804 | -122.49640 | 29985 ft | 464 kts | 352° |
| 2026-04-22 02:35 | 40.08266 | -122.50693 | 29982 ft | 464 kts | 352° |
| 2026-04-22 02:36 | 40.14687 | -122.51743 | 29990 ft | 464 kts | 352° |
| 2026-04-22 02:36 | 40.21133 | -122.52799 | 29997 ft | 466 kts | 353° |
| 2026-04-22 02:37 | 40.27628 | -122.53863 | 29987 ft | 468 kts | 353° |
| 2026-04-22 02:37 | 40.34123 | -122.54932 | 29976 ft | 468 kts | 353° |
| 2026-04-22 02:38 | 40.41762 | -122.56190 | 29973 ft | 470 kts | 353° |
| 2026-04-22 02:38 | 40.47203 | -122.57087 | 29973 ft | 470 kts | 353° |
| 2026-04-22 02:39 | 40.53732 | -122.58167 | 29971 ft | 470 kts | 353° |
| 2026-04-22 02:39 | 40.60262 | -122.59248 | 29917 ft | 471 kts | 353° |
| 2026-04-22 02:40 | 40.66778 | -122.60329 | 29834 ft | 471 kts | 354° |
| 2026-04-22 02:40 | 40.73308 | -122.61415 | 29745 ft | 472 kts | 354° |
| 2026-04-22 02:41 | 40.79846 | -122.62505 | 29673 ft | 472 kts | 354° |
| 2026-04-22 02:41 | 40.86382 | -122.63596 | 29770 ft | 473 kts | 354° |
| 2026-04-22 02:42 | 40.92948 | -122.64694 | 29959 ft | 476 kts | 354° |
| 2026-04-22 02:42 | 40.99554 | -122.65801 | 29998 ft | 477 kts | 354° |
| 2026-04-22 02:43 | 41.06185 | -122.66915 | 29909 ft | 478 kts | 354° |
| 2026-04-22 02:43 | 41.09506 | -122.67474 | 29795 ft | 479 kts | 354° |
| 2026-04-22 02:43 | 41.12828 | -122.68034 | 29646 ft | 478 kts | 354° |
| 2026-04-22 02:43 | 41.16124 | -122.68590 | 29357 ft | 475 kts | 354° |
| 2026-04-22 02:44 | 41.19415 | -122.69145 | 28756 ft | 476 kts | 354° |
| 2026-04-22 02:44 | 41.22756 | -122.69709 | 28006 ft | 481 kts | 354° |
| 2026-04-22 02:44 | 41.26070 | -122.70268 | 27200 ft | 487 kts | 354° |
| 2026-04-22 02:44 | 41.29463 | -122.70841 | 26435 ft | 490 kts | 354° |
| 2026-04-22 02:45 | 41.32851 | -122.71415 | 25767 ft | 487 kts | 354° |
| 2026-04-22 02:45 | 41.36223 | -122.71988 | 25172 ft | 482 kts | 354° |
| 2026-04-22 02:45 | 41.39537 | -122.72553 | 24601 ft | 475 kts | 354° |
| 2026-04-22 02:45 | 41.42802 | -122.73109 | 24042 ft | 468 kts | 354° |
| 2026-04-22 02:46 | 41.46035 | -122.73660 | 23490 ft | 461 kts | 354° |
| 2026-04-22 02:46 | 41.49184 | -122.74197 | 22967 ft | 453 kts | 354° |
| 2026-04-22 02:46 | 41.52268 | -122.74723 | 22447 ft | 447 kts | 354° |
| 2026-04-22 02:46 | 41.55341 | -122.75248 | 21887 ft | 442 kts | 354° |
| 2026-04-22 02:47 | 41.58402 | -122.75770 | 21334 ft | 438 kts | 353° |
| 2026-04-22 02:47 | 41.61453 | -122.76291 | 20720 ft | 436 kts | 353° |
| 2026-04-22 02:47 | 41.64455 | -122.76804 | 20083 ft | 435 kts | 353° |
| 2026-04-22 02:47 | 41.68446 | -122.77486 | 19216 ft | 433 kts | 353° |
| 2026-04-22 02:48 | 41.70444 | -122.77829 | 18773 ft | 432 kts | 353° |
| 2026-04-22 02:48 | 41.73428 | -122.78341 | 18117 ft | 429 kts | 352° |
| 2026-04-22 02:48 | 41.76389 | -122.78849 | 17458 ft | 426 kts | 352° |
| 2026-04-22 02:48 | 41.79368 | -122.79361 | 16796 ft | 422 kts | 352° |
| 2026-04-22 02:49 | 41.82274 | -122.79861 | 16147 ft | 418 kts | 352° |
| 2026-04-22 02:49 | 41.85174 | -122.80360 | 15504 ft | 414 kts | 351° |
| 2026-04-22 02:49 | 41.87998 | -122.80846 | 14882 ft | 409 kts | 351° |
| 2026-04-22 02:49 | 41.90832 | -122.81335 | 14254 ft | 405 kts | 351° |
| 2026-04-22 02:50 | 41.94541 | -122.81976 | 13449 ft | 398 kts | 351° |
| 2026-04-22 02:50 | 41.96378 | -122.82292 | 13044 ft | 395 kts | 351° |
| 2026-04-22 02:50 | 42.00006 | -122.82922 | 12244 ft | 388 kts | 351° |
| 2026-04-22 02:50 | 42.01800 | -122.83233 | 12069 ft | 379 kts | 351° |
| 2026-04-22 02:51 | 42.04341 | -122.83740 | 12035 ft | 359 kts | 345° |
| 2026-04-22 02:51 | 42.06656 | -122.84799 | 11918 ft | 342 kts | 335° |
| 2026-04-22 02:51 | 42.08802 | -122.86057 | 11828 ft | 327 kts | 334° |
| 2026-04-22 02:51 | 42.10844 | -122.87277 | 11751 ft | 312 kts | 334° |
| 2026-04-22 02:52 | 42.12797 | -122.88442 | 11682 ft | 298 kts | 334° |
| 2026-04-22 02:52 | 42.14683 | -122.89564 | 11523 ft | 289 kts | 334° |
| 2026-04-22 02:52 | 42.16507 | -122.90649 | 11184 ft | 288 kts | 334° |
| 2026-04-22 02:52 | 42.18348 | -122.91747 | 10848 ft | 286 kts | 334° |
| 2026-04-22 02:53 | 42.20189 | -122.92840 | 10503 ft | 284 kts | 334° |
| 2026-04-22 02:53 | 42.21988 | -122.93907 | 10169 ft | 282 kts | 334° |
| 2026-04-22 02:53 | 42.23779 | -122.94979 | 9833 ft | 280 kts | 334° |
| 2026-04-22 02:53 | 42.25572 | -122.96057 | 9482 ft | 279 kts | 334° |
| 2026-04-22 02:54 | 42.27345 | -122.97124 | 9141 ft | 277 kts | 334° |
| 2026-04-22 02:54 | 42.29098 | -122.98186 | 8797 ft | 275 kts | 334° |
| 2026-04-22 02:54 | 42.30832 | -122.99248 | 8448 ft | 273 kts | 333° |
| 2026-04-22 02:54 | 42.32570 | -123.00317 | 8108 ft | 271 kts | 334° |
| 2026-04-22 02:55 | 42.34290 | -123.01381 | 7768 ft | 270 kts | 333° |
| 2026-04-22 02:55 | 42.35981 | -123.02451 | 7475 ft | 266 kts | 333° |
| 2026-04-22 02:55 | 42.37648 | -123.03475 | 7174 ft | 264 kts | 335° |
| 2026-04-22 02:55 | 42.39342 | -123.04489 | 6762 ft | 266 kts | 334° |
| 2026-04-22 02:56 | 42.41046 | -123.05540 | 6438 ft | 263 kts | 333° |
| 2026-04-22 02:56 | 42.42698 | -123.06567 | 6127 ft | 261 kts | 334° |
| 2026-04-22 02:56 | 42.44346 | -123.07610 | 6005 ft | 256 kts | 334° |
| 2026-04-22 02:56 | 42.45974 | -123.08644 | 6001 ft | 260 kts | 334° |
| 2026-04-22 02:57 | 42.47612 | -123.09688 | 5996 ft | 261 kts | 334° |
| 2026-04-22 02:57 | 42.49239 | -123.10726 | 5992 ft | 247 kts | 334° |
| 2026-04-22 02:57 | 42.50735 | -123.11681 | 5993 ft | 233 kts | 334° |
| 2026-04-22 02:57 | 42.52184 | -123.12607 | 5997 ft | 227 kts | 334° |
| 2026-04-22 02:58 | 42.53645 | -123.13540 | 6003 ft | 229 kts | 334° |
| 2026-04-22 02:58 | 42.55103 | -123.14468 | 6002 ft | 230 kts | 334° |
| 2026-04-22 02:58 | 42.56555 | -123.15388 | 6002 ft | 229 kts | 334° |
| 2026-04-22 02:58 | 42.58000 | -123.16299 | 6000 ft | 229 kts | 334° |
| 2026-04-22 02:59 | 42.59449 | -123.17209 | 5996 ft | 229 kts | 334° |
| 2026-04-22 02:59 | 42.60910 | -123.18127 | 5996 ft | 229 kts | 334° |
| 2026-04-22 02:59 | 42.62364 | -123.19041 | 5996 ft | 229 kts | 334° |
| 2026-04-22 02:59 | 42.63816 | -123.19954 | 5998 ft | 229 kts | 334° |
| 2026-04-22 03:00 | 42.65275 | -123.20871 | 5996 ft | 228 kts | 334° |
| 2026-04-22 03:00 | 42.66804 | -123.21399 | 5990 ft | 230 kts | 0° |
| 2026-04-22 03:00 | 42.68339 | -123.20785 | 5991 ft | 233 kts | 33° |
| 2026-04-22 03:00 | 42.69408 | -123.19134 | 5987 ft | 235 kts | 66° |
| 2026-04-22 03:01 | 42.69664 | -123.16936 | 5998 ft | 236 kts | 99° |
| 2026-04-22 03:01 | 42.69049 | -123.14871 | 6000 ft | 236 kts | 124° |
| 2026-04-22 03:01 | 42.68118 | -123.13066 | 5992 ft | 235 kts | 125° |
| 2026-04-22 03:01 | 42.67201 | -123.11207 | 5995 ft | 234 kts | 124° |
| 2026-04-22 03:02 | 42.66309 | -123.09365 | 5964 ft | 229 kts | 124° |
| 2026-04-22 03:02 | 42.65440 | -123.07577 | 5748 ft | 225 kts | 124° |
| 2026-04-22 03:02 | 42.64571 | -123.05787 | 5702 ft | 227 kts | 124° |
| 2026-04-22 03:02 | 42.63686 | -123.03962 | 5695 ft | 232 kts | 124° |
| 2026-04-22 03:03 | 42.62785 | -123.02113 | 5690 ft | 232 kts | 125° |
| 2026-04-22 03:03 | 42.61709 | -123.00499 | 5689 ft | 231 kts | 142° |
| 2026-04-22 03:03 | 42.60320 | -122.99418 | 5696 ft | 224 kts | 156° |
| 2026-04-22 03:03 | 42.58930 | -122.98621 | 5671 ft | 211 kts | 158° |
| 2026-04-22 03:04 | 42.57603 | -122.97838 | 5443 ft | 207 kts | 156° |
| 2026-04-22 03:04 | 42.56247 | -122.97102 | 5118 ft | 206 kts | 162° |
| 2026-04-22 03:04 | 42.54874 | -122.96541 | 4852 ft | 207 kts | 163° |
| 2026-04-22 03:04 | 42.53569 | -122.95813 | 4559 ft | 197 kts | 154° |
| 2026-04-22 03:05 | 42.51942 | -122.94894 | 4193 ft | 181 kts | 159° |
| 2026-04-22 03:05 | 42.51179 | -122.94493 | 4030 ft | 173 kts | 158° |
| 2026-04-22 03:05 | 42.50095 | -122.93922 | 3801 ft | 161 kts | 159° |
| 2026-04-22 03:05 | 42.49081 | -122.93388 | 3580 ft | 152 kts | 159° |
| 2026-04-22 03:06 | 42.48100 | -122.92875 | 3361 ft | 151 kts | 160° |
| 2026-04-22 03:06 | 42.47122 | -122.92362 | 3153 ft | 150 kts | 160° |
| 2026-04-22 03:06 | 42.46144 | -122.91850 | 2929 ft | 150 kts | 161° |
| 2026-04-22 03:06 | 42.45165 | -122.91339 | 2718 ft | 149 kts | 161° |
| 2026-04-22 03:07 | 42.44202 | -122.90832 | 2514 ft | 149 kts | 161° |
| 2026-04-22 03:07 | 42.43236 | -122.90328 | 2310 ft | 149 kts | 161° |
| 2026-04-22 03:07 | 42.42270 | -122.89821 | 2110 ft | 148 kts | 161° |
| 2026-04-22 03:07 | 42.41307 | -122.89320 | 1908 ft | 147 kts | 160° |
| 2026-04-22 03:08 | 42.40349 | -122.88802 | 1726 ft | 148 kts | 159° |
| 2026-04-22 03:08 | 42.39391 | -122.88306 | 1564 ft | 148 kts | 161° |
| 2026-04-22 03:08 | 42.38401 | -122.87801 | 1312 ft | 149 kts | 159° |
| 2026-04-22 03:08 | 42.37532 | -122.87347 | 1310 ft | 109 kts | 158° |
| 2026-04-22 03:09 | 42.36994 | -122.87064 | 1319 ft | 59 kts | 158° |
| 2026-04-22 03:09 | 42.36733 | -122.86948 | 1322 ft | 17 kts | 202° |
| 2026-04-22 03:09 | 42.36698 | -122.87027 | 1321 ft | 4 kts | 251° |
| 2026-04-22 03:09 | 42.36698 | -122.87031 | 1321 ft | 0 kts | 270° |
| 2026-04-22 03:10 | 42.36703 | -122.87045 | 1320 ft | 2 kts | 301° |
| 2026-04-22 03:10 | 42.36713 | -122.87064 | 1320 ft | 1 kts | 311° |
| 2026-04-22 03:10 | 42.36713 | -122.87065 | 1320 ft | 1 kts | 312° |
| 2026-04-22 03:10 | 42.36720 | -122.87073 | 1320 ft | 0 kts | 323° |
| 2026-04-22 03:11 | 42.36725 | -122.87077 | 1320 ft | 2 kts | 331° |
| 2026-04-22 03:11 | 42.36752 | -122.87096 | 1319 ft | 5 kts | 336° |
| 2026-04-22 03:11 | 42.36799 | -122.87122 | 1319 ft | 8 kts | 340° |
| 2026-04-22 03:11 | 42.36890 | -122.87163 | 1317 ft | 12 kts | 342° |
| 2026-04-22 03:12 | 42.36935 | -122.87200 | 1316 ft | 10 kts | 301° |
| 2026-04-22 03:12 | 42.36911 | -122.87360 | 1314 ft | 0 kts | 249° |